Time;durP1;ratioP1;P1;durP2;ratioP2;P2;SDS_P1;SDS_P2;PMS_P1;PMS_P2;Temp;Humidity;BMP_temperature;BMP_pressure;BME280_temperature;BME280_humidity;BME280_pressure;Samples;Min_cycle;Max_cycle;Signal;HPM_P1;HPM_P2
2021/07/05 00:02:14;;;;;;;7.85;5.80;;;24.30;99.10;;;;;;5095357;28;20082;-89
2021/07/05 00:04:42;;;;;;;5.90;5.22;;;24.30;99.10;;;;;;5095436;28;20059;-88
2021/07/05 00:07:08;;;;;;;8.15;5.88;;;24.30;99.00;;;;;;5096639;28;20016;-88
2021/07/05 00:09:34;;;;;;;6.82;5.22;;;24.30;99.00;;;;;;5096141;28;20031;-87
2021/07/05 00:12:00;;;;;;;8.02;5.97;;;24.30;99.00;;;;;;5095425;28;20028;-88
2021/07/05 00:14:26;;;;;;;7.93;5.95;;;24.20;99.10;;;;;;5095130;28;20024;-87
2021/07/05 00:16:53;;;;;;;6.50;5.45;;;24.20;99.20;;;;;;5096438;28;20052;-88
2021/07/05 00:19:18;;;;;;;8.60;5.63;;;24.20;99.10;;;;;;5095015;28;20021;-86
2021/07/05 00:21:44;;;;;;;7.10;5.53;;;24.20;99.00;;;;;;5094922;28;20027;-88
2021/07/05 00:24:10;;;;;;;5.63;5.10;;;24.20;99.10;;;;;;5094936;28;20024;-86
2021/07/05 00:26:36;;;;;;;6.28;5.10;;;24.20;99.10;;;;;;5094892;28;20085;-87
2021/07/05 00:29:01;;;;;;;6.95;5.18;;;24.10;99.10;;;;;;5096331;28;20017;-89
2021/07/05 00:31:27;;;;;;;11.00;6.07;;;24.10;99.00;;;;;;5094888;28;20408;-87
2021/07/05 00:33:53;;;;;;;7.32;5.60;;;24.10;99.00;;;;;;5095283;28;20028;-86
2021/07/05 00:36:19;;;;;;;7.20;5.72;;;24.10;99.00;;;;;;5094722;28;20121;-88
2021/07/05 00:38:45;;;;;;;5.70;4.85;;;24.10;99.10;;;;;;5094787;28;20434;-88
2021/07/05 00:41:11;;;;;;;12.20;5.30;;;24.10;99.10;;;;;;5094571;28;20028;-85
2021/07/05 00:43:36;;;;;;;10.57;5.90;;;24.10;99.00;;;;;;5095581;28;20094;-88
2021/07/05 00:46:02;;;;;;;8.98;5.78;;;24.10;99.10;;;;;;5094824;28;20020;-86
2021/07/05 00:48:28;;;;;;;7.57;5.50;;;24.10;99.20;;;;;;5094600;28;20475;-88
2021/07/05 00:50:54;;;;;;;8.45;6.13;;;24.00;99.30;;;;;;5094376;28;20063;-87
2021/07/05 00:53:20;;;;;;;5.93;5.43;;;24.00;99.30;;;;;;5095641;28;20035;-89
2021/07/05 00:55:46;;;;;;;7.32;5.35;;;24.00;99.30;;;;;;5094536;28;20055;-87
2021/07/05 00:58:12;;;;;;;6.03;5.40;;;24.00;99.30;;;;;;5094806;28;20454;-88
2021/07/05 01:00:38;;;;;;;7.47;5.47;;;24.00;99.30;;;;;;5094585;28;20055;-88
2021/07/05 01:03:04;;;;;;;11.25;6.20;;;23.90;99.40;;;;;;5094445;28;20055;-87
2021/07/05 01:05:30;;;;;;;6.40;5.80;;;23.90;99.70;;;;;;5094266;28;20476;-84
2021/07/05 01:07:56;;;;;;;8.38;5.82;;;23.90;99.50;;;;;;5094062;28;20119;-88
2021/07/05 01:10:23;;;;;;;8.10;6.13;;;23.90;99.60;;;;;;5094040;28;20016;-90
2021/07/05 01:12:50;;;;;;;7.30;5.90;;;23.90;99.80;;;;;;5093997;28;20043;-88
2021/07/05 01:15:20;;;;;;;7.03;5.95;;;23.80;99.70;;;;;;5094195;28;20111;-87
2021/07/05 01:17:46;;;;;;;8.50;6.30;;;23.90;99.80;;;;;;5095236;28;20028;-88
2021/07/05 01:20:14;;;;;;;7.40;5.78;;;23.90;99.90;;;;;;5093753;28;20054;-87
2021/07/05 01:22:40;;;;;;;15.55;6.78;;;23.80;99.80;;;;;;5093678;28;20027;-84
2021/07/05 01:25:09;;;;;;;7.63;6.38;;;23.80;99.90;;;;;;5094960;28;20012;-87
2021/07/05 01:27:35;;;;;;;6.47;5.60;;;23.80;99.80;;;;;;5094295;28;20020;-88
2021/07/05 01:30:01;;;;;;;8.18;6.55;;;23.80;99.70;;;;;;5093650;28;20016;-88
2021/07/05 01:32:26;;;;;;;7.60;5.90;;;23.80;99.90;;;;;;5094896;28;20085;-87
2021/07/05 01:34:52;;;;;;;7.05;6.13;;;23.70;99.80;;;;;;5093657;28;20475;-87
2021/07/05 01:37:18;;;;;;;8.13;5.55;;;23.80;99.90;;;;;;5093561;28;20024;-88
2021/07/05 01:39:44;;;;;;;6.90;6.20;;;23.80;99.90;;;;;;5093446;28;20482;-87
2021/07/05 01:42:10;;;;;;;6.57;5.97;;;23.70;99.90;;;;;;5094521;28;20055;-88
2021/07/05 01:44:36;;;;;;;9.82;6.30;;;23.70;99.90;;;;;;5094672;28;20036;-87
2021/07/05 01:47:03;;;;;;;6.95;5.80;;;23.70;99.90;;;;;;5093371;28;20379;-88
2021/07/05 01:49:28;;;;;;;9.15;6.75;;;23.70;99.90;;;;;;5093336;28;20039;-87
2021/07/05 01:51:54;;;;;;;7.80;6.40;;;23.60;99.90;;;;;;5092695;28;20470;-87
2021/07/05 01:54:20;;;;;;;6.65;6.05;;;23.60;99.90;;;;;;5093268;28;20020;-87
2021/07/05 01:56:46;;;;;;;9.27;6.70;;;23.60;99.90;;;;;;5093236;28;20125;-88
2021/07/05 01:59:12;;;;;;;8.43;6.85;;;23.60;99.90;;;;;;5093294;28;20063;-88
2021/07/05 02:01:39;;;;;;;17.17;6.85;;;23.60;99.90;;;;;;5093313;28;20043;-89
2021/07/05 02:04:05;;;;;;;9.73;6.43;;;23.60;99.90;;;;;;5094421;28;20016;-87
2021/07/05 02:06:32;;;;;;;8.38;6.22;;;23.60;99.90;;;;;;5093066;28;20020;-88
2021/07/05 02:08:58;;;;;;;11.05;6.93;;;23.60;99.90;;;;;;5093068;28;20538;-87
2021/07/05 02:11:24;;;;;;;7.20;5.70;;;23.50;99.90;;;;;;5093060;28;20032;-88
2021/07/05 02:13:50;;;;;;;8.57;6.45;;;23.50;99.90;;;;;;5093010;28;20535;-86
2021/07/05 02:16:17;;;;;;;6.60;6.00;;;23.60;99.90;;;;;;5092881;28;20024;-88
2021/07/05 02:18:42;;;;;;;7.63;6.13;;;23.50;99.90;;;;;;5092923;28;20474;-88
2021/07/05 02:21:08;;;;;;;10.27;6.75;;;23.50;99.90;;;;;;5092798;28;20035;-87
2021/07/05 02:23:36;;;;;;;6.95;6.22;;;23.50;99.90;;;;;;5092613;28;20028;-87
2021/07/05 02:26:03;;;;;;;7.63;6.82;;;23.50;99.90;;;;;;5092849;28;20068;-88
2021/07/05 02:28:33;;;;;;;9.25;6.32;;;23.50;99.90;;;;;;5094029;28;20525;-88
2021/07/05 02:30:59;;;;;;;7.32;6.60;;;23.50;99.90;;;;;;5092665;28;20081;-88
2021/07/05 02:33:31;;;;;;;6.57;5.97;;;23.50;99.90;;;;;;5092855;28;20028;-87
2021/07/05 02:36:02;;;;;;;7.45;6.30;;;23.50;99.90;;;;;;5093960;28;20122;-88
2021/07/05 02:38:27;;;;;;;6.57;5.97;;;23.50;99.90;;;;;;5092907;28;20120;-88
2021/07/05 02:40:56;;;;;;;9.77;6.85;;;23.60;99.90;;;;;;5092663;28;20043;-88
2021/07/05 02:43:22;;;;;;;6.72;6.05;;;23.60;99.90;;;;;;5092468;28;20490;-88
2021/07/05 02:45:50;;;;;;;6.43;5.60;;;23.60;99.90;;;;;;5094367;28;20024;-88
2021/07/05 02:48:20;;;;;;;7.38;6.68;;;23.60;99.90;;;;;;5092628;28;20020;-88
2021/07/05 02:50:49;;;;;;;8.65;6.97;;;23.60;99.90;;;;;;5093624;28;20020;-89
2021/07/05 02:53:15;;;;;;;7.93;6.10;;;23.60;99.90;;;;;;5092982;28;20028;-90
2021/07/05 02:55:42;;;;;;;7.50;6.30;;;23.60;99.90;;;;;;5092932;28;20031;-89
2021/07/05 02:58:08;;;;;;;6.35;5.75;;;23.60;99.90;;;;;;5092725;28;20058;-90
2021/07/05 03:00:43;;;;;;;10.45;6.50;;;23.60;99.90;;;;;;5092628;28;20030;-89
2021/07/05 03:03:09;;;;;;;7.32;6.47;;;23.70;99.90;;;;;;5092610;28;20028;-89
2021/07/05 03:05:35;;;;;;;7.50;6.75;;;23.70;99.90;;;;;;5096059;28;20023;-88
2021/07/05 03:08:01;;;;;;;7.80;6.88;;;23.70;99.90;;;;;;5097632;28;20016;-83
2021/07/05 03:10:33;;;;;;;10.68;6.70;;;23.70;99.90;;;;;;5097685;28;20028;-87
2021/07/05 03:13:00;;;;;;;8.85;6.90;;;23.70;99.90;;;;;;5096243;28;20051;-87
2021/07/05 03:15:26;;;;;;;9.07;6.57;;;23.70;99.90;;;;;;5096369;28;20024;-84
2021/07/05 03:17:52;;;;;;;8.27;7.07;;;23.70;99.90;;;;;;5097466;28;20035;-87
2021/07/05 03:20:21;;;;;;;7.88;6.85;;;23.70;99.90;;;;;;5096132;28;20363;-86
2021/07/05 03:22:48;;;;;;;8.85;7.28;;;23.60;99.90;;;;;;5096160;28;20028;-88
2021/07/05 03:25:15;;;;;;;8.88;7.22;;;23.60;99.90;;;;;;5096088;28;20366;-87
2021/07/05 03:27:41;;;;;;;10.07;7.00;;;23.60;99.90;;;;;;5097221;28;20020;-87
2021/07/05 03:30:09;;;;;;;11.40;7.22;;;23.60;99.90;;;;;;5096027;28;20065;-88
2021/07/05 03:32:35;;;;;;;9.10;7.05;;;23.60;99.90;;;;;;5095799;28;20020;-87
2021/07/05 03:35:03;;;;;;;7.65;6.70;;;23.60;99.90;;;;;;5095918;28;20055;-88
2021/07/05 03:37:29;;;;;;;8.30;7.45;;;23.60;99.90;;;;;;5097253;28;20115;-83
2021/07/05 03:39:54;;;;;;;9.10;7.43;;;23.70;99.90;;;;;;5081915;28;20067;-90
2021/07/05 03:42:20;;;;;;;10.85;7.75;;;23.60;99.90;;;;;;5075681;28;20048;-90
2021/07/05 03:44:46;;;;;;;9.82;7.80;;;23.70;99.90;;;;;;5076038;28;20116;-90
2021/07/05 03:47:11;;;;;;;8.68;7.10;;;23.60;99.90;;;;;;5075871;28;20020;-84
2021/07/05 03:49:37;;;;;;;8.90;7.50;;;23.70;99.90;;;;;;5076718;28;20013;-90
2021/07/05 03:52:03;;;;;;;9.48;7.90;;;23.70;99.90;;;;;;5093831;28;20351;-90
2021/07/05 03:54:29;;;;;;;10.80;8.60;;;23.80;99.90;;;;;;5096065;28;20027;-89
2021/07/05 03:56:55;;;;;;;10.60;8.80;;;23.80;99.90;;;;;;5095991;28;20016;-90
2021/07/05 03:59:20;;;;;;;9.00;8.10;;;23.80;99.90;;;;;;5096203;28;20020;-90
2021/07/05 04:02:25;;;;;;;8.48;7.72;;;23.80;99.90;;;;;;5095958;28;20087;-89
2021/07/05 04:04:53;;;;;;;9.75;8.75;;;23.90;99.90;;;;;;5095924;28;20032;-91
2021/07/05 04:07:20;;;;;;;9.88;8.88;;;23.80;99.90;;;;;;5095594;28;20037;-89
2021/07/05 04:09:46;;;;;;;10.07;9.07;;;23.90;99.90;;;;;;5088047;28;20125;-85
2021/07/05 04:12:12;;;;;;;13.27;9.75;;;23.90;99.90;;;;;;5076568;28;20482;-84
2021/07/05 04:14:40;;;;;;;10.48;9.45;;;23.90;99.90;;;;;;5075981;28;20463;-91
2021/07/05 04:17:06;;;;;;;10.73;9.30;;;23.80;99.90;;;;;;5075437;28;20131;-91
2021/07/05 04:19:32;;;;;;;10.43;9.35;;;23.90;99.90;;;;;;5075442;28;20052;-91
2021/07/05 04:21:59;;;;;;;12.52;10.10;;;23.90;99.90;;;;;;5075137;28;20086;-89
2021/07/05 04:24:25;;;;;;;11.20;9.93;;;23.90;99.90;;;;;;5075092;28;20439;-91
2021/07/05 04:26:50;;;;;;;16.98;10.27;;;24.00;99.90;;;;;;5076422;28;20020;-93
2021/07/05 04:29:16;;;;;;;12.07;10.70;;;24.00;99.90;;;;;;5095731;28;20024;-91
2021/07/05 04:31:42;;;;;;;12.43;9.95;;;24.00;99.90;;;;;;5095293;28;20081;-91
2021/07/05 04:34:08;;;;;;;12.73;10.38;;;24.10;99.90;;;;;;5096020;28;20038;-86
2021/07/05 04:36:35;;;;;;;11.02;10.00;;;24.10;99.90;;;;;;5095505;28;20028;-86
2021/07/05 04:39:04;;;;;;;14.43;10.55;;;24.30;99.80;;;;;;5095194;28;20027;-88
2021/07/05 04:41:30;;;;;;;13.23;10.57;;;24.30;99.60;;;;;;5095636;28;20031;-89
2021/07/05 04:43:56;;;;;;;13.80;10.43;;;24.20;99.70;;;;;;5074650;28;20402;-88
2021/07/05 04:46:23;;;;;;;12.63;11.02;;;24.30;99.60;;;;;;5091999;28;20024;-85
2021/07/05 04:48:49;;;;;;;11.18;10.07;;;24.40;99.50;;;;;;5094924;28;20215;-89
2021/07/05 04:51:15;;;;;;;11.25;10.15;;;24.50;99.30;;;;;;5095159;28;20047;-92
2021/07/05 04:53:41;;;;;;;12.38;10.57;;;24.50;99.40;;;;;;5095011;28;20028;-89
2021/07/05 04:56:07;;;;;;;12.10;10.32;;;24.50;99.50;;;;;;5080402;28;20426;-92
2021/07/05 04:58:35;;;;;;;12.68;10.25;;;24.60;99.30;;;;;;5074821;28;20406;-93
2021/07/05 05:01:01;;;;;;;13.85;10.82;;;24.70;99.40;;;;;;5076119;28;20028;-92
2021/07/05 05:03:27;;;;;;;12.35;10.32;;;24.70;99.40;;;;;;5074418;28;20020;-89
2021/07/05 05:05:53;;;;;;;11.70;10.50;;;24.90;99.00;;;;;;5074635;28;20078;-89
2021/07/05 05:08:18;;;;;;;12.65;10.48;;;24.90;98.90;;;;;;5074483;28;20021;-93
2021/07/05 05:10:44;;;;;;;11.35;10.23;;;24.90;98.90;;;;;;5074005;28;20025;-91
2021/07/05 05:13:10;;;;;;;12.77;10.25;;;25.00;98.70;;;;;;5081125;28;20032;-87
2021/07/05 05:15:36;;;;;;;12.30;10.75;;;24.90;98.80;;;;;;5094081;28;20071;-89
2021/07/05 05:18:02;;;;;;;11.90;10.80;;;25.00;98.60;;;;;;5094610;28;20490;-89
2021/07/05 05:20:28;;;;;;;12.95;10.32;;;24.90;98.70;;;;;;5094733;28;20025;-92
2021/07/05 05:22:54;;;;;;;12.05;10.68;;;24.90;98.90;;;;;;5094234;28;20031;-90
2021/07/05 05:25:20;;;;;;;10.73;9.70;;;24.90;98.90;;;;;;5094321;28;20031;-89
2021/07/05 05:27:47;;;;;;;13.05;10.43;;;25.00;98.70;;;;;;5094067;28;20155;-83
2021/07/05 05:30:15;;;;;;;11.45;10.27;;;25.10;98.70;;;;;;5094878;28;20402;-83
2021/07/05 05:32:41;;;;;;;11.32;10.07;;;25.10;98.60;;;;;;5074518;28;20071;-83
2021/07/05 05:35:07;;;;;;;11.32;10.20;;;25.10;98.60;;;;;;5075669;28;20059;-84
2021/07/05 05:37:33;;;;;;;10.75;9.65;;;25.10;98.60;;;;;;5093294;28;20428;-85
2021/07/05 05:39:59;;;;;;;15.63;9.85;;;25.10;98.50;;;;;;5094688;28;20024;-84
2021/07/05 05:42:24;;;;;;;11.35;9.93;;;25.00;98.60;;;;;;5084946;28;20045;-84
2021/07/05 05:44:50;;;;;;;10.43;9.38;;;25.00;98.80;;;;;;5074254;28;20103;-83
2021/07/05 05:47:16;;;;;;;10.15;9.15;;;25.00;98.70;;;;;;5074251;28;20028;-82
2021/07/05 05:49:42;;;;;;;10.30;9.30;;;25.00;98.80;;;;;;5073849;28;20040;-82
2021/07/05 05:52:08;;;;;;;11.98;8.70;;;25.10;98.70;;;;;;5072877;28;20111;-84
2021/07/05 05:54:33;;;;;;;13.52;9.32;;;25.20;98.70;;;;;;5074051;28;20020;-83
2021/07/05 05:57:02;;;;;;;11.25;9.18;;;25.30;98.70;;;;;;5072770;28;20024;-83
2021/07/05 05:59:28;;;;;;;11.23;10.00;;;25.40;98.40;;;;;;5078679;28;20012;-83
2021/07/05 06:01:54;;;;;;;10.88;8.98;;;25.40;98.10;;;;;;5092881;28;20069;-83
2021/07/05 06:04:21;;;;;;;11.43;9.68;;;25.40;98.10;;;;;;5094187;28;20024;-84
2021/07/05 06:06:47;;;;;;;10.45;9.45;;;25.40;98.20;;;;;;5094537;28;20042;-83
2021/07/05 06:09:13;;;;;;;9.93;8.93;;;25.50;98.30;;;;;;5092895;28;20024;-84
2021/07/05 06:11:40;;;;;;;10.35;9.35;;;25.50;98.10;;;;;;5094167;28;20020;-83
2021/07/05 06:14:07;;;;;;;10.93;8.98;;;25.60;98.20;;;;;;5092758;28;20028;-83
2021/07/05 06:16:33;;;;;;;11.27;9.80;;;25.60;98.10;;;;;;5094095;28;20094;-83
2021/07/05 06:18:59;;;;;;;10.00;9.10;;;25.70;98.10;;;;;;5088260;28;20059;-83
2021/07/05 06:21:26;;;;;;;12.20;10.32;;;25.70;98.00;;;;;;5073696;28;20021;-82
2021/07/05 06:23:56;;;;;;;12.25;9.07;;;25.70;97.70;;;;;;5073972;28;20054;-87
2021/07/05 06:26:22;;;;;;;9.52;8.63;;;25.80;97.80;;;;;;5073658;28;20113;-83
2021/07/05 06:28:47;;;;;;;11.15;9.85;;;25.80;97.60;;;;;;5072467;28;20063;-84
2021/07/05 06:31:13;;;;;;;10.25;8.75;;;25.90;98.00;;;;;;5073658;28;20529;-84
2021/07/05 06:33:39;;;;;;;10.13;9.13;;;26.00;98.00;;;;;;5072324;28;20047;-84
2021/07/05 06:36:05;;;;;;;12.40;8.85;;;26.00;97.80;;;;;;5073861;28;20463;-84
2021/07/05 06:38:31;;;;;;;10.30;9.32;;;26.10;97.50;;;;;;5072088;28;20025;-84
2021/07/05 06:40:58;;;;;;;10.32;9.32;;;26.10;97.50;;;;;;5073878;28;20023;-83
2021/07/05 06:43:25;;;;;;;10.82;9.55;;;26.10;97.50;;;;;;5073517;28;20414;-86
2021/07/05 06:45:51;;;;;;;11.10;9.98;;;26.10;97.50;;;;;;5072400;28;20028;-84
2021/07/05 06:48:17;;;;;;;9.23;8.35;;;26.00;97.60;;;;;;5073498;28;20017;-84
2021/07/05 06:50:43;;;;;;;9.90;8.90;;;26.10;97.70;;;;;;5073810;28;20025;-84
2021/07/05 06:53:09;;;;;;;10.73;8.70;;;26.10;97.60;;;;;;5073502;28;20025;-88
2021/07/05 06:55:36;;;;;;;9.05;8.10;;;26.30;97.50;;;;;;5072456;28;20063;-84
2021/07/05 06:58:02;;;;;;;9.85;8.95;;;26.30;97.40;;;;;;5073748;28;20025;-86
2021/07/05 07:00:29;;;;;;;9.73;8.80;;;26.40;97.20;;;;;;5072130;28;20032;-84
2021/07/05 07:02:56;;;;;;;11.90;8.40;;;26.40;97.40;;;;;;5073274;28;20094;-85
2021/07/05 07:05:23;;;;;;;14.88;8.63;;;26.50;97.50;;;;;;5073357;28;20017;-86
2021/07/05 07:07:58;;;;;;;10.77;9.10;;;26.50;97.30;;;;;;5073290;28;20020;-83
2021/07/05 07:10:25;;;;;;;9.93;8.93;;;26.70;97.00;;;;;;5073272;28;20025;-83
2021/07/05 07:12:54;;;;;;;8.73;7.82;;;26.70;96.90;;;;;;5073264;28;20021;-83
2021/07/05 07:15:23;;;;;;;13.73;8.13;;;26.80;96.70;;;;;;5073571;28;20109;-84
2021/07/05 07:20:41;;;;;;;8.75;7.78;;;26.90;96.10;;;;;;5049887;28;20037;-84
2021/07/05 07:23:07;;;;;;;9.30;7.90;;;27.00;96.20;;;;;;5071802;28;20028;-84
2021/07/05 07:25:33;;;;;;;7.97;7.18;;;27.10;96.00;;;;;;5073062;28;20092;-84
2021/07/05 07:27:58;;;;;;;9.32;6.95;;;27.10;95.50;;;;;;5071893;28;20029;-84
2021/07/05 07:30:24;;;;;;;8.00;7.10;;;27.10;95.60;;;;;;5073402;28;20020;-84
2021/07/05 07:32:50;;;;;;;8.57;7.68;;;27.10;95.80;;;;;;5072949;28;20042;-85
2021/07/05 07:35:17;;;;;;;8.50;7.55;;;27.10;95.60;;;;;;5071721;28;20035;-84
2021/07/05 07:37:51;;;;;;;7.38;6.70;;;27.10;95.60;;;;;;5071689;28;20111;-84
2021/07/05 07:40:19;;;;;;;10.93;7.32;;;27.20;95.90;;;;;;5072991;28;20020;-84
2021/07/05 07:42:45;;;;;;;8.55;7.07;;;27.20;95.70;;;;;;5071425;28;20041;-84
2021/07/05 07:45:13;;;;;;;9.38;7.32;;;27.20;95.40;;;;;;5073151;28;20021;-84
2021/07/05 07:47:39;;;;;;;7.78;6.57;;;27.20;95.30;;;;;;5071586;28;20021;-84
2021/07/05 07:50:07;;;;;;;7.53;6.25;;;27.30;95.00;;;;;;5072923;28;20032;-84
2021/07/05 07:52:32;;;;;;;7.32;6.63;;;27.50;94.90;;;;;;5076466;28;20093;-84
2021/07/05 07:54:59;;;;;;;7.65;6.00;;;27.50;95.10;;;;;;5076480;28;20467;-85
2021/07/05 07:57:25;;;;;;;6.38;5.70;;;27.60;95.20;;;;;;5075228;28;20029;-84
2021/07/05 07:59:51;;;;;;;7.22;6.53;;;27.60;94.80;;;;;;5076464;28;20036;-84
2021/07/05 08:02:16;;;;;;;8.82;6.50;;;27.70;94.60;;;;;;5076260;28;20032;-83
2021/07/05 08:04:42;;;;;;;6.75;6.05;;;27.70;94.80;;;;;;5091953;28;20029;-86
2021/07/05 08:07:08;;;;;;;8.80;6.40;;;27.70;94.60;;;;;;5076198;28;20048;-85
2021/07/05 08:09:34;;;;;;;6.75;6.15;;;27.70;94.30;;;;;;5074890;28;20107;-84
2021/07/05 08:12:01;;;;;;;20.13;6.63;;;27.70;94.60;;;;;;5076173;28;20055;-82
2021/07/05 08:14:27;;;;;;;6.95;6.03;;;27.70;94.60;;;;;;5076275;28;20052;-85
2021/07/05 08:16:53;;;;;;;11.73;6.25;;;27.70;94.10;;;;;;5074712;28;20020;-83
2021/07/05 08:19:19;;;;;;;8.05;6.10;;;27.70;93.90;;;;;;5076142;28;20039;-84
2021/07/05 08:21:45;;;;;;;9.13;6.38;;;27.60;93.70;;;;;;5076020;28;20021;-84
2021/07/05 08:24:11;;;;;;;7.18;6.45;;;27.60;94.10;;;;;;5075972;28;20024;-85
2021/07/05 08:26:37;;;;;;;6.88;6.18;;;27.60;94.30;;;;;;5074686;28;20389;-84
2021/07/05 08:29:03;;;;;;;8.77;6.97;;;27.60;94.40;;;;;;5074456;28;20112;-88
2021/07/05 08:31:30;;;;;;;6.28;5.75;;;27.70;94.50;;;;;;5075880;28;20024;-84
2021/07/05 08:33:56;;;;;;;6.60;5.75;;;27.60;94.60;;;;;;5075894;28;20020;-85
2021/07/05 08:36:22;;;;;;;12.30;5.93;;;27.70;94.10;;;;;;5074514;28;20081;-89
2021/07/05 08:38:48;;;;;;;6.20;5.60;;;27.70;94.10;;;;;;5075722;28;20058;-84
2021/07/05 08:41:14;;;;;;;6.22;5.63;;;27.80;94.10;;;;;;5074467;28;20078;-88
2021/07/05 08:43:42;;;;;;;9.07;5.93;;;27.80;93.70;;;;;;5075368;28;20567;-85
2021/07/05 08:46:09;;;;;;;5.95;5.35;;;27.80;93.40;;;;;;5075601;28;20390;-89
2021/07/05 08:48:40;;;;;;;6.22;4.70;;;27.80;93.40;;;;;;5074263;28;20021;-85
2021/07/05 08:51:09;;;;;;;7.45;5.28;;;27.90;93.10;;;;;;5074207;28;20498;-85
2021/07/05 08:53:37;;;;;;;5.85;5.32;;;28.00;92.90;;;;;;5074105;28;20024;-85
2021/07/05 08:56:03;;;;;;;5.90;5.30;;;28.00;92.80;;;;;;5075339;28;20103;-86
2021/07/05 08:58:29;;;;;;;7.15;5.38;;;28.10;92.80;;;;;;5075390;28;20059;-85
2021/07/05 09:00:55;;;;;;;8.02;5.80;;;28.20;92.90;;;;;;5073856;28;20029;-84
2021/07/05 09:03:23;;;;;;;9.68;5.22;;;28.20;92.60;;;;;;5073883;28;20120;-84
2021/07/05 09:06:08;;;;;;;6.82;5.53;;;28.30;92.50;;;;;;5075058;28;20029;-86
2021/07/05 09:08:40;;;;;;;6.22;5.63;;;28.40;93.00;;;;;;5056941;28;20124;-83
2021/07/05 09:11:17;;;;;;;5.88;5.32;;;28.40;92.90;;;;;;5073703;28;20051;-85
2021/07/05 09:13:51;;;;;;;5.57;5.07;;;28.50;92.30;;;;;;5073481;28;20021;-88
2021/07/05 09:16:35;;;;;;;8.10;5.20;;;28.50;91.70;;;;;;5074820;28;20021;-84
2021/07/05 09:19:03;;;;;;;5.80;5.30;;;28.50;92.10;;;;;;5075202;28;20467;-85
2021/07/05 09:21:31;;;;;;;6.13;5.53;;;28.50;92.60;;;;;;5074638;28;20060;-85
2021/07/05 09:24:01;;;;;;;6.35;5.70;;;28.50;92.60;;;;;;5073537;28;20062;-84
2021/07/05 09:26:57;;;;;;;9.02;5.65;;;28.50;92.40;;;;;;5074722;28;20382;-85
2021/07/05 09:29:23;;;;;;;5.93;5.40;;;28.40;92.20;;;;;;5052248;28;20032;-91
2021/07/05 09:31:59;;;;;;;5.60;5.10;;;28.20;92.30;;;;;;5074949;28;20439;-86
2021/07/05 09:34:30;;;;;;;5.90;5.30;;;28.30;92.10;;;;;;5074626;28;20034;-84
2021/07/05 09:37:25;;;;;;;6.32;5.70;;;28.30;92.30;;;;;;5090266;28;20453;-87
2021/07/05 09:40:02;;;;;;;5.93;5.32;;;28.20;92.20;;;;;;5073194;28;20028;-85
2021/07/05 09:42:38;;;;;;;5.93;5.22;;;28.30;91.70;;;;;;5089762;28;20102;-85
2021/07/05 09:45:10;;;;;;;6.43;5.00;;;28.40;91.90;;;;;;5074524;28;20059;-87
2021/07/05 09:47:36;;;;;;;6.07;5.28;;;28.40;91.50;;;;;;5074393;28;20115;-87
2021/07/05 09:50:19;;;;;;;6.03;5.35;;;28.40;91.30;;;;;;5072801;28;20430;-85
2021/07/05 09:52:45;;;;;;;5.80;5.30;;;28.50;91.70;;;;;;5074349;28;20031;-84
2021/07/05 09:55:17;;;;;;;6.13;5.50;;;28.60;91.80;;;;;;5072979;28;20028;-84
2021/07/05 09:57:51;;;;;;;5.80;5.20;;;28.60;92.10;;;;;;5074131;28;20067;-91
2021/07/05 10:00:23;;;;;;;5.93;5.32;;;28.60;91.80;;;;;;5074424;28;20032;-86
2021/07/05 10:03:08;;;;;;;6.00;5.50;;;28.70;91.20;;;;;;5072751;28;20039;-85
2021/07/05 10:05:46;;;;;;;6.00;5.50;;;28.60;91.10;;;;;;5072876;28;20021;-86
2021/07/05 10:08:14;;;;;;;7.63;5.95;;;28.60;91.30;;;;;;5072737;28;20024;-86
2021/07/05 10:10:45;;;;;;;6.45;5.60;;;28.60;91.50;;;;;;5072501;28;20475;-87
2021/07/05 10:13:16;;;;;;;6.10;5.50;;;28.60;91.20;;;;;;5072111;28;20028;-85
2021/07/05 10:15:43;;;;;;;6.50;5.60;;;28.60;91.00;;;;;;5073939;28;20028;-85
2021/07/05 10:18:09;;;;;;;6.18;5.57;;;28.60;91.70;;;;;;5072606;28;20021;-85
2021/07/05 10:20:41;;;;;;;8.70;5.40;;;28.80;91.70;;;;;;5072565;28;20074;-85
2021/07/05 10:23:10;;;;;;;6.47;5.63;;;28.80;91.40;;;;;;5072508;28;20056;-85
2021/07/05 10:25:38;;;;;;;6.20;5.13;;;28.80;91.60;;;;;;5073783;28;20467;-84
2021/07/05 10:28:05;;;;;;;6.03;5.53;;;28.80;91.60;;;;;;5074129;28;20029;-85
2021/07/05 10:30:32;;;;;;;6.57;5.45;;;28.80;90.70;;;;;;5072485;28;20081;-83
2021/07/05 10:32:58;;;;;;;5.95;5.10;;;28.90;91.00;;;;;;5073731;28;20085;-85
2021/07/05 10:35:36;;;;;;;7.22;5.55;;;28.90;90.70;;;;;;5072459;28;20025;-88
2021/07/05 10:38:12;;;;;;;6.07;5.13;;;29.00;90.80;;;;;;5073732;28;20028;-86
2021/07/05 10:40:51;;;;;;;7.38;5.70;;;28.90;91.30;;;;;;5072306;28;20024;-85
2021/07/05 10:43:23;;;;;;;6.32;5.60;;;28.90;91.00;;;;;;5072075;28;20513;-85
2021/07/05 10:45:50;;;;;;;7.80;5.20;;;28.90;91.00;;;;;;5072303;28;20032;-85
2021/07/05 10:48:18;;;;;;;6.03;5.45;;;28.80;91.50;;;;;;5073488;28;20036;-86
2021/07/05 10:50:52;;;;;;;7.95;5.10;;;28.80;90.90;;;;;;5072826;28;20025;-86
2021/07/05 10:53:39;;;;;;;7.63;4.95;;;28.80;91.20;;;;;;5073398;28;20036;-85
2021/07/05 10:56:30;;;;;;;8.90;5.68;;;28.80;91.90;;;;;;5072070;28;20021;-85
2021/07/05 10:59:18;;;;;;;7.70;4.97;;;28.90;91.50;;;;;;5073439;28;20075;-85
2021/07/05 11:01:49;;;;;;;6.78;4.95;;;29.00;91.10;;;;;;5026269;28;20123;-85
2021/07/05 11:04:29;;;;;;;7.40;5.18;;;29.00;90.40;;;;;;5072357;28;20029;-86
2021/07/05 11:07:12;;;;;;;7.05;4.65;;;28.90;90.80;;;;;;5073649;28;20066;-86
2021/07/05 11:09:57;;;;;;;5.90;5.25;;;29.00;90.80;;;;;;5072145;28;20051;-86
2021/07/05 11:12:33;;;;;;;7.43;4.80;;;29.00;91.50;;;;;;5072018;28;20032;-87
2021/07/05 11:14:59;;;;;;;6.60;4.93;;;29.10;91.00;;;;;;5072218;28;20021;-86
2021/07/05 11:17:26;;;;;;;7.63;4.82;;;29.10;90.60;;;;;;5089008;28;20048;-87
2021/07/05 11:20:10;;;;;;;6.65;4.60;;;29.10;90.90;;;;;;5072110;28;20016;-86
2021/07/05 11:22:39;;;;;;;8.68;4.72;;;29.10;90.80;;;;;;5071954;28;20027;-86
2021/07/05 11:25:25;;;;;;;6.65;5.30;;;29.20;90.60;;;;;;5074325;28;20012;-86
2021/07/05 11:28:03;;;;;;;5.50;4.70;;;29.30;90.80;;;;;;5076096;28;20021;-86
2021/07/05 11:30:31;;;;;;;6.72;4.15;;;29.40;88.70;;;;;;5075790;28;20024;-84
2021/07/05 11:33:19;;;;;;;6.35;4.60;;;29.50;88.10;;;;;;5092906;28;20038;-85
2021/07/05 11:35:45;;;;;;;6.63;4.50;;;29.50;87.50;;;;;;5059098;28;20032;-86
2021/07/05 11:38:10;;;;;;;5.72;4.85;;;29.50;88.30;;;;;;5092896;28;20120;-87
2021/07/05 11:40:50;;;;;;;8.07;4.80;;;29.50;87.30;;;;;;5092774;28;20616;-86
2021/07/05 11:43:18;;;;;;;;;;;29.60;86.90;;;;;;5075701;28;20056;-86
2021/07/05 11:45:50;;;;;;;5.97;4.68;;;29.50;87.80;;;;;;5076842;28;19911;-85
2021/07/05 11:48:40;;;;;;;5.95;4.70;;;29.60;87.60;;;;;;5076441;28;20146;-87
2021/07/05 11:51:18;;;;;;;5.00;4.60;;;29.60;88.70;;;;;;5092319;28;20371;-86
2021/07/05 11:53:54;;;;;;;6.80;4.72;;;29.60;87.80;;;;;;5076524;28;20095;-85
2021/07/05 11:56:27;;;;;;;5.07;4.68;;;29.70;87.80;;;;;;5075178;28;20025;-85
2021/07/05 11:58:53;;;;;;;5.05;4.50;;;29.70;86.50;;;;;;5075064;28;20028;-84
2021/07/05 12:01:18;;;;;;;4.95;4.50;;;29.80;86.30;;;;;;5075151;28;20028;-83
2021/07/05 12:03:52;;;;;;;5.05;4.13;;;30.00;85.00;;;;;;5076203;28;20029;-88
2021/07/05 12:06:19;;;;;;;7.03;4.78;;;30.10;85.10;;;;;;5075491;28;20029;-85
2021/07/05 12:09:04;;;;;;;14.93;4.25;;;30.10;83.70;;;;;;5074715;28;20112;-85
2021/07/05 12:11:43;;;;;;;4.68;4.28;;;30.00;83.70;;;;;;5072359;28;20028;-85
2021/07/05 12:14:18;;;;;;;4.85;4.28;;;30.10;83.50;;;;;;5072443;28;20020;-85
2021/07/05 12:16:53;;;;;;;5.90;4.35;;;30.10;85.00;;;;;;5076055;28;20470;-85
2021/07/05 12:19:19;;;;;;;5.82;4.45;;;30.30;84.20;;;;;;5074811;28;20024;-86
2021/07/05 12:21:52;;;;;;;4.97;4.40;;;30.40;85.80;;;;;;5074672;28;20364;-85
2021/07/05 12:24:20;;;;;;;44.13;7.95;;;30.50;85.10;;;;;;5074675;28;20020;-85
2021/07/05 12:26:46;;;;;;;8.05;4.65;;;30.50;84.50;;;;;;5075100;28;20162;-85
2021/07/05 12:29:21;;;;;;;7.85;4.32;;;30.50;84.70;;;;;;5091476;28;20062;-86
2021/07/05 12:32:00;;;;;;;29.02;6.00;;;30.50;82.30;;;;;;5074806;28;20028;-85
2021/07/05 12:34:48;;;;;;;14.52;5.50;;;30.50;81.70;;;;;;5076122;28;20383;-84
2021/07/05 12:37:32;;;;;;;7.07;5.63;;;30.30;85.10;;;;;;5074043;28;20040;-85
2021/07/05 12:40:09;;;;;;;5.70;4.55;;;30.30;84.40;;;;;;5091418;28;20115;-85
2021/07/05 12:42:39;;;;;;;5.13;4.60;;;30.20;85.50;;;;;;5091128;28;20125;-88
2021/07/05 12:45:11;;;;;;;7.55;4.90;;;30.20;85.60;;;;;;5075693;28;20020;-86
2021/07/05 12:47:50;;;;;;;9.18;4.55;;;30.20;85.00;;;;;;5075588;28;20036;-86
2021/07/05 12:50:19;;;;;;;5.57;4.68;;;30.20;84.80;;;;;;5075628;28;20028;-85
2021/07/05 12:53:01;;;;;;;5.28;4.80;;;30.00;86.70;;;;;;5074119;28;20123;-87
2021/07/05 12:55:26;;;;;;;5.70;4.78;;;29.90;86.90;;;;;;5091297;28;20029;-87